Shizka — DSQL2 — position and weather

sailwx.info

Track history (hours):
 
Tides and Currents Weather Stations Pressure Air Temp Water Temp Dewpoint Dewpoint Depression Visibility Wind Speed Wind Dir Waves Ship Positions

Shizka

Last reported at 2018-Feb-16 04:17 UTC. Time now 2018-Feb-22 09:24 UTC.
Position N 34°27' E 130°09'.

Length 74 m; draft 5 m.

Type: Cargo ship. MMSI: 441613000.

Date/timePositionNaut miles runAvg speedWind from/ knotsBaromVisibWave heightAir tempDewpointWater temp
2018-Feb-16 04:17N 34°27' E 130°09'3 8.4
2018-Feb-16 03:59N 34°25' E 130°12'4 8.4
2018-Feb-16 03:30N 34°23' E 130°16'4 8.4
2018-Feb-16 03:00N 34°20' E 130°19'4 8.4
2018-Feb-16 02:30N 34°17' E 130°23'4 8.4
2018-Feb-16 02:00N 34°15' E 130°27'4 8.4
2018-Feb-16 01:30N 34°12' E 130°31'4 8.3
2018-Feb-16 01:00N 34°10' E 130°35'4 8.0
2018-Feb-16 00:30N 34°07' E 130°39'4 8.3
2018-Feb-16 00:00N 34°05' E 130°43'4 8.4
2018-Feb-15 23:30N 34°02' E 130°47'4 8.4
2018-Feb-15 23:00N 33°59' E 130°51'4 8.8
2018-Feb-15 22:30N 33°55' E 130°53'3 6.2
2018-Feb-15 22:00N 33°57' E 130°57'4 7.4
2018-Feb-15 21:30N 33°59' E 131°00'4 8.3
2018-Feb-15 21:00N 33°56' E 131°04'3 6.3
2018-Feb-15 20:30N 33°53' E 131°06'0 0.0
2018-Feb-15 19:59N 33°53' E 131°06'0 0.0
2018-Feb-15 19:30N 33°53' E 131°06'0 0.1
2018-Feb-15 19:00N 33°53' E 131°06'0 0.0
2018-Feb-15 18:30N 33°53' E 131°06'0 0.0
2018-Feb-15 18:00N 33°53' E 131°06'2 3.7
2018-Feb-15 17:30N 33°52' E 131°08'4 7.9
2018-Feb-15 17:00N 33°52' E 131°13'4 8.0
2018-Feb-15 16:30N 33°51' E 131°18'4 8.2
2018-Feb-15 16:00N 33°50' E 131°23'4 7.9
2018-Feb-15 15:30N 33°49' E 131°27'4 7.9
2018-Feb-15 15:00N 33°49' E 131°32'4 7.8
2018-Feb-15 14:30N 33°48' E 131°37'4 7.9
2018-Feb-15 14:00N 33°48' E 131°41'4 8.0
2018-Feb-15 13:30N 33°47' E 131°46'4 8.2
2018-Feb-15 13:00N 33°46' E 131°51'5 8.3
2018-Feb-15 12:26N 33°46' E 131°57'4 8.2
2018-Feb-15 11:59N 33°46' E 132°01'4 7.9
2018-Feb-15 11:28N 33°47' E 132°06'5 8.1
2018-Feb-15 10:53N 33°49' E 132°11'4 8.1
2018-Feb-15 10:27N 33°50' E 132°15'4 8.0
2018-Feb-15 09:58N 33°50' E 132°19'10 7.8
2018-Feb-15 08:37N 33°53' E 132°32'1 8.7
2018-Feb-15 08:29N 33°53' E 132°33'5 8.9
2018-Feb-15 07:59N 33°55' E 132°38'4 9.3
2018-Feb-15 07:30N 33°58' E 132°42'84 8.6
2018-Feb-14 21:40N 34°22' E 134°20'2 9.3
2018-Feb-14 21:30N 34°22' E 134°21'5 9.1
2018-Feb-14 21:00N 34°20' E 134°26'5 9.0
2018-Feb-14 20:30N 34°18' E 134°31'5 9.2
2018-Feb-14 20:01N 34°16' E 134°36'5 9.7
2018-Feb-14 19:30N 34°13' E 134°40'5 9.2
2018-Feb-14 19:00N 34°09' E 134°44'4 8.6
2018-Feb-14 18:30N 34°06' E 134°47'4 8.5
2018-Feb-14 18:00N 34°02' E 134°50'4 8.5
2018-Feb-14 17:30N 33°59' E 134°54'4 8.3
2018-Feb-14 17:00N 33°56' E 134°57'4 8.5
2018-Feb-14 16:30N 33°53' E 135°00'5 8.2
2018-Feb-14 15:57N 33°50' E 135°04'163 6.4
2018-Feb-13 14:41N 34°33' E 138°14'1 6.4
2018-Feb-13 14:28N 34°34' E 138°15'4 6.8
2018-Feb-13 13:55N 34°34' E 138°20'4 6.8
2018-Feb-13 13:20N 34°34' E 138°24'2 6.6
2018-Feb-13 13:00N 34°34' E 138°27'4 6.0
2018-Feb-13 12:16N 34°35' E 138°33'2 5.8
2018-Feb-13 12:00N 34°34' E 138°34'3 5.5
2018-Feb-13 11:28N 34°34' E 138°38'3 5.0
2018-Feb-13 10:58N 34°34' E 138°41'2 4.8
2018-Feb-13 10:30N 34°34' E 138°44'3 4.5
2018-Feb-13 09:55N 34°35' E 138°47'2 4.3
2018-Feb-13 09:30N 34°35' E 138°49'2 4.0
2018-Feb-13 08:59N 34°35' E 138°52'2 4.0
2018-Feb-13 08:28N 34°35' E 138°54'2 4.8
2018-Feb-13 08:01N 34°36' E 138°57'3 5.5
2018-Feb-13 07:30N 34°37' E 138°60'3 6.1
2018-Feb-13 07:01N 34°40' E 139°02'4 7.3
2018-Feb-13 06:30N 34°43' E 139°04'4 7.1
2018-Feb-13 06:00N 34°46' E 139°07'3 6.8
2018-Feb-13 05:30N 34°48' E 139°09'4 7.1
2018-Feb-13 04:57N 34°51' E 139°12'5 7.8
2018-Feb-13 04:21N 34°55' E 139°16'3 7.4
2018-Feb-13 04:00N 34°57' E 139°18'4 7.0
2018-Feb-13 03:26N 34°59' E 139°22'4 6.9
2018-Feb-13 02:55N 35°01' E 139°26'3 7.0
2018-Feb-13 02:30N 35°02' E 139°29'4 7.2
2018-Feb-13 02:00N 35°04' E 139°33'4 7.4
2018-Feb-13 01:30N 35°06' E 139°37'4 7.6
2018-Feb-13 01:00N 35°08' E 139°41'4 7.7
2018-Feb-13 00:29N 35°10' E 139°44'4 8.0
2018-Feb-13 00:00N 35°14' E 139°46'4 8.8
2018-Feb-12 23:30N 35°18' E 139°44'4 9.0
2018-Feb-12 23:00N 35°22' E 139°42'4 7.8
2018-Feb-12 22:30N 35°25' E 139°45'4 7.6
2018-Feb-12 22:01N 35°23' E 139°50'1 1.1
2018-Feb-12 21:27N 35°23' E 139°50'0 0.0
2018-Feb-12 20:57N 35°23' E 139°50'0 0.0
2018-Feb-12 20:27N 35°23' E 139°50'0 0.0
2018-Feb-12 20:00N 35°23' E 139°50'0 0.0
2018-Feb-12 19:30N 35°23' E 139°50'0 0.0
2018-Feb-12 18:57N 35°23' E 139°50'0 0.0
2018-Feb-12 18:30N 35°23' E 139°50'0 0.0
2018-Feb-12 17:57N 35°23' E 139°50'0 0.0
2018-Feb-12 17:30N 35°23' E 139°50'0 0.0
2018-Feb-12 17:00N 35°23' E 139°50'0 0.0
2018-Feb-12 16:30N 35°23' E 139°50'0 0.0
2018-Feb-12 16:00N 35°23' E 139°50'0 0.0
2018-Feb-12 15:15N 35°23' E 139°50'0 0.0
2018-Feb-12 15:00N 35°23' E 139°50'0 0.0
2018-Feb-12 14:30N 35°23' E 139°50'0 0.0
2018-Feb-12 14:00N 35°23' E 139°50'0 0.0
2018-Feb-12 13:30N 35°23' E 139°50'0 0.0
2018-Feb-12 13:00N 35°23' E 139°50'0 0.0
2018-Feb-12 12:30N 35°23' E 139°50'0 0.0
2018-Feb-12 12:00N 35°23' E 139°50'0 0.0
2018-Feb-12 11:30N 35°23' E 139°50'0 0.0
2018-Feb-12 10:57N 35°23' E 139°50'0 0.0
2018-Feb-12 10:27N 35°23' E 139°50'0 0.0
2018-Feb-12 09:57N 35°23' E 139°50'0 0.0
2018-Feb-12 09:30N 35°23' E 139°50'0 0.0
2018-Feb-12 08:57N 35°23' E 139°50'0 0.0
2018-Feb-12 08:30N 35°23' E 139°50'0 0.0
2018-Feb-12 08:00N 35°23' E 139°50'0 0.0
2018-Feb-12 07:27N 35°23' E 139°50'0 0.0
2018-Feb-12 07:00N 35°23' E 139°50'0 0.0
2018-Feb-12 06:30N 35°23' E 139°50'0 0.0
2018-Feb-12 06:00N 35°23' E 139°50'0 0.0
2018-Feb-12 05:30N 35°23' E 139°50'0 0.0
2018-Feb-12 05:00N 35°23' E 139°50'0 0.0
2018-Feb-12 04:21N 35°23' E 139°50'0 0.0
2018-Feb-12 03:57N 35°23' E 139°50'0 0.0
2018-Feb-12 03:30N 35°23' E 139°50'0 0.0
2018-Feb-12 02:57N 35°23' E 139°50'0 0.0
2018-Feb-12 02:30N 35°23' E 139°50'0 0.0
2018-Feb-12 02:00N 35°23' E 139°50'0 0.0
2018-Feb-12 01:27N 35°23' E 139°50'0 0.0
2018-Feb-12 01:00N 35°23' E 139°50'0 0.0
2018-Feb-12 00:30N 35°23' E 139°50'0 0.0
2018-Feb-12 00:00N 35°23' E 139°50'0 0.0
2018-Feb-11 23:30N 35°23' E 139°50'0 0.0
2018-Feb-11 23:00N 35°23' E 139°50'0 0.1
2018-Feb-11 22:24N 35°23' E 139°50'0 0.3
2018-Feb-11 22:01N 35°23' E 139°50'2 2.9
2018-Feb-11 21:29N 35°22' E 139°51'0 0.0
2018-Feb-11 20:59N 35°22' E 139°51'0 0.0
2018-Feb-11 20:29N 35°22' E 139°51'0 0.0
2018-Feb-11 19:59N 35°22' E 139°51'0 0.0
2018-Feb-11 19:29N 35°22' E 139°51'0 0.0
2018-Feb-11 18:56N 35°22' E 139°51'0 0.0
2018-Feb-11 18:29N 35°22' E 139°51'0 0.0
2018-Feb-11 17:59N 35°22' E 139°51'0 0.0
2018-Feb-11 17:29N 35°22' E 139°51'0 0.0
2018-Feb-11 16:59N 35°22' E 139°51'0 0.0
2018-Feb-11 16:29N 35°22' E 139°51'0 0.0
2018-Feb-11 15:59N 35°22' E 139°51'0 0.0
2018-Feb-11 15:29N 35°22' E 139°51'0 0.0
2018-Feb-11 14:59N 35°22' E 139°51'0 0.0
2018-Feb-11 14:29N 35°22' E 139°51'0 0.0
2018-Feb-11 13:59N 35°22' E 139°51'0 0.0
2018-Feb-11 13:29N 35°22' E 139°51'0 0.0
2018-Feb-11 12:56N 35°22' E 139°51'0 0.0
2018-Feb-11 12:29N 35°22' E 139°51'0 0.0
2018-Feb-11 11:56N 35°22' E 139°51'0 0.0
2018-Feb-11 11:26N 35°22' E 139°51'0 0.0
2018-Feb-11 10:59N 35°22' E 139°51'0 0.0
2018-Feb-11 10:29N 35°22' E 139°51'0 0.0
2018-Feb-11 09:59N 35°22' E 139°51'0 0.0
2018-Feb-11 09:29N 35°22' E 139°51'0 0.0
2018-Feb-11 08:59N 35°22' E 139°51'0 0.0
2018-Feb-11 08:29N 35°22' E 139°51'0 0.0
2018-Feb-11 07:59N 35°22' E 139°51'0 0.0
2018-Feb-11 07:29N 35°22' E 139°51'0 0.0
2018-Feb-11 06:59N 35°22' E 139°51'0 0.0
2018-Feb-11 06:29N 35°22' E 139°51'0 0.0
2018-Feb-11 05:59N 35°22' E 139°51'0 0.0
2018-Feb-11 05:29N 35°22' E 139°51'0 0.0
2018-Feb-11 04:59N 35°22' E 139°51'0 0.0
2018-Feb-11 04:23N 35°22' E 139°51'0 0.0
2018-Feb-11 03:59N 35°22' E 139°51'0 0.0
2018-Feb-11 03:20N 35°22' E 139°51'0 0.0
2018-Feb-11 02:59N 35°22' E 139°51'0 0.0
2018-Feb-11 02:29N 35°22' E 139°51'0 0.0
2018-Feb-11 01:56N 35°22' E 139°51'0 0.0
2018-Feb-11 01:26N 35°22' E 139°51'0 0.0
2018-Feb-11 00:59N 35°22' E 139°51'0 0.0
2018-Feb-11 00:26N 35°22' E 139°51'0 0.0
2018-Feb-10 23:59N 35°22' E 139°51'0 0.0
2018-Feb-10 23:26N 35°22' E 139°51'0 0.0
2018-Feb-10 22:59N 35°22' E 139°51'0 0.0
2018-Feb-10 22:29N 35°22' E 139°51'0 0.0
2018-Feb-10 21:59N 35°22' E 139°51'0 0.0
2018-Feb-10 21:29N 35°22' E 139°51'0 0.0
2018-Feb-10 20:59N 35°22' E 139°51'0 0.0
2018-Feb-10 20:29N 35°22' E 139°51'0 0.0
2018-Feb-10 19:59N 35°22' E 139°51'0 0.0
2018-Feb-10 19:29N 35°22' E 139°51'0 0.0
2018-Feb-10 18:56N 35°22' E 139°51'0 0.0
2018-Feb-10 18:29N 35°22' E 139°51'0 0.0
2018-Feb-10 17:56N 35°22' E 139°51'0 0.0
2018-Feb-10 17:29N 35°22' E 139°51'0 0.0
2018-Feb-10 16:59N 35°22' E 139°51'0 0.0
2018-Feb-10 16:26N 35°22' E 139°51'0 0.0
2018-Feb-10 15:59N 35°22' E 139°51'0 0.0
2018-Feb-10 15:29N 35°22' E 139°51'0 0.0
2018-Feb-10 14:59N 35°22' E 139°51'0 0.0
2018-Feb-10 14:26N 35°22' E 139°51'0 0.0
2018-Feb-10 13:59N 35°22' E 139°51'0 0.0
2018-Feb-10 13:29N 35°22' E 139°51'0 0.0
2018-Feb-10 12:59N 35°22' E 139°51'0 0.0
2018-Feb-10 12:29N 35°22' E 139°51'0 0.0
2018-Feb-10 11:59N 35°22' E 139°51'0 0.0
2018-Feb-10 11:29N 35°22' E 139°51'0 0.0
2018-Feb-10 10:56N 35°22' E 139°51'1 2.3
2018-Feb-10 10:30N 35°23' E 139°51'3 4.4
2018-Feb-10 09:54N 35°21' E 139°54'0 0.0
2018-Feb-10 09:30N 35°21' E 139°54'0 0.0
2018-Feb-10 08:57N 35°21' E 139°54'0 0.0
2018-Feb-10 08:24N 35°21' E 139°54'0 0.0
2018-Feb-10 08:00N 35°21' E 139°54'0 0.0
2018-Feb-10 07:30N 35°21' E 139°54'0 0.0
2018-Feb-10 06:48N 35°21' E 139°54'0 0.0
2018-Feb-10 06:30N 35°21' E 139°54'0 0.0
2018-Feb-10 06:00N 35°21' E 139°54'0 0.0
2018-Feb-10 05:30N 35°21' E 139°54'0 0.0
2018-Feb-10 05:00N 35°21' E 139°54'0 0.0
2018-Feb-10 04:30N 35°21' E 139°54'0 0.0
2018-Feb-10 04:00N 35°21' E 139°54'0 0.0
2018-Feb-10 03:30N 35°21' E 139°54'0 0.0
2018-Feb-10 03:00N 35°21' E 139°54'0 0.0
2018-Feb-10 02:27N 35°21' E 139°54'0 0.0
2018-Feb-10 02:00N 35°21' E 139°54'0 0.0
2018-Feb-10 01:30N 35°21' E 139°54'0 0.0
2018-Feb-10 01:00N 35°21' E 139°54'0 0.0
2018-Feb-10 00:24N 35°21' E 139°54'0 0.0
2018-Feb-10 00:00N 35°21' E 139°54'0 0.0
2018-Feb-09 23:24N 35°21' E 139°54'0 0.0
2018-Feb-09 22:57N 35°21' E 139°54'0 0.0
2018-Feb-09 22:45N 35°21' E 139°54'5 0.2
2018-Feb-08 22:00N 35°23' E 139°48'12 7.8
2018-Feb-08 20:30N 35°11' E 139°47'5 9.0
2018-Feb-08 20:00N 35°07' E 139°45'4 8.9
2018-Feb-08 19:30N 35°03' E 139°42'251 7.4
2018-Feb-07 09:30N 34°27' E 134°39'4 8.5
2018-Feb-07 09:00N 34°32' E 134°40'4 8.8
2018-Feb-07 08:30N 34°36' E 134°40'4 8.7
2018-Feb-07 08:00N 34°41' E 134°40'4 8.5
2018-Feb-07 07:30N 34°45' E 134°39'1 0.6
2018-Feb-07 04:53N 34°46' E 134°40'0 0.0
2018-Feb-07 04:29N 34°46' E 134°40'0 0.0
2018-Feb-07 03:59N 34°46' E 134°40'0 0.0
2018-Feb-07 03:29N 34°46' E 134°40'0 0.0
2018-Feb-07 02:59N 34°46' E 134°40'0 0.0
2018-Feb-07 02:29N 34°46' E 134°40'0 0.0
2018-Feb-07 01:53N 34°46' E 134°40'0 0.0
2018-Feb-07 01:23N 34°46' E 134°40'0 0.0
2018-Feb-07 00:59N 34°46' E 134°40'0 0.0
2018-Feb-07 00:23N 34°46' E 134°40'0 0.0
2018-Feb-06 22:29N 34°46' E 134°40'1 2.7
2018-Feb-06 21:59N 34°45' E 134°40'0 0.0
2018-Feb-06 21:22N 34°45' E 134°40'1 1.9
2018-Feb-06 21:00N 34°44' E 134°40'4 8.7
2018-Feb-06 20:30N 34°40' E 134°40'4 9.0
2018-Feb-06 20:00N 34°36' E 134°37'5 9.2
2018-Feb-06 19:30N 34°33' E 134°33'5 9.1
2018-Feb-06 19:00N 34°30' E 134°29'5 9.4
2018-Feb-06 18:29N 34°27' E 134°24'85 7.7
2018-Feb-06 07:27N 34°01' E 132°46'4 8.9
2018-Feb-06 06:58N 33°57' E 132°43'  
Track history (hours):
 
Tides and Currents Weather Stations Pressure Air Temp Water Temp Dewpoint Dewpoint Depression Visibility Wind Speed Wind Dir Waves Ship Positions

Shizka

Last reported at 2018-Feb-16 04:17 UTC. Time now 2018-Feb-22 09:24 UTC.
Position N 34°27' E 130°09'.

Length 74 m; draft 5 m.

Type: Cargo ship. MMSI: 441613000.

Date/timePositionNaut miles runAvg speedWind from/ knotsBaromVisibWave heightAir tempDewpointWater temp
2018-Feb-16 04:17N 34°27' E 130°09'3 8.4
2018-Feb-16 03:59N 34°25' E 130°12'4 8.4
2018-Feb-16 03:30N 34°23' E 130°16'4 8.4
2018-Feb-16 03:00N 34°20' E 130°19'4 8.4
2018-Feb-16 02:30N 34°17' E 130°23'4 8.4
2018-Feb-16 02:00N 34°15' E 130°27'4 8.4
2018-Feb-16 01:30N 34°12' E 130°31'4 8.3
2018-Feb-16 01:00N 34°10' E 130°35'4 8.0
2018-Feb-16 00:30N 34°07' E 130°39'4 8.3
2018-Feb-16 00:00N 34°05' E 130°43'4 8.4
2018-Feb-15 23:30N 34°02' E 130°47'4 8.4
2018-Feb-15 23:00N 33°59' E 130°51'4 8.8
2018-Feb-15 22:30N 33°55' E 130°53'3 6.2
2018-Feb-15 22:00N 33°57' E 130°57'4 7.4
2018-Feb-15 21:30N 33°59' E 131°00'4 8.3
2018-Feb-15 21:00N 33°56' E 131°04'3 6.3
2018-Feb-15 20:30N 33°53' E 131°06'0 0.0
2018-Feb-15 19:59N 33°53' E 131°06'0 0.0
2018-Feb-15 19:30N 33°53' E 131°06'0 0.1
2018-Feb-15 19:00N 33°53' E 131°06'0 0.0
2018-Feb-15 18:30N 33°53' E 131°06'0 0.0
2018-Feb-15 18:00N 33°53' E 131°06'2 3.7
2018-Feb-15 17:30N 33°52' E 131°08'4 7.9
2018-Feb-15 17:00N 33°52' E 131°13'4 8.0
2018-Feb-15 16:30N 33°51' E 131°18'4 8.2
2018-Feb-15 16:00N 33°50' E 131°23'4 7.9
2018-Feb-15 15:30N 33°49' E 131°27'4 7.9
2018-Feb-15 15:00N 33°49' E 131°32'4 7.8
2018-Feb-15 14:30N 33°48' E 131°37'4 7.9
2018-Feb-15 14:00N 33°48' E 131°41'4 8.0
2018-Feb-15 13:30N 33°47' E 131°46'4 8.2
2018-Feb-15 13:00N 33°46' E 131°51'5 8.3
2018-Feb-15 12:26N 33°46' E 131°57'4 8.2
2018-Feb-15 11:59N 33°46' E 132°01'4 7.9
2018-Feb-15 11:28N 33°47' E 132°06'5 8.1
2018-Feb-15 10:53N 33°49' E 132°11'4 8.1
2018-Feb-15 10:27N 33°50' E 132°15'4 8.0
2018-Feb-15 09:58N 33°50' E 132°19'10 7.8
2018-Feb-15 08:37N 33°53' E 132°32'1 8.7
2018-Feb-15 08:29N 33°53' E 132°33'5 8.9
2018-Feb-15 07:59N 33°55' E 132°38'4 9.3
2018-Feb-15 07:30N 33°58' E 132°42'84 8.6
2018-Feb-14 21:40N 34°22' E 134°20'2 9.3
2018-Feb-14 21:30N 34°22' E 134°21'5 9.1
2018-Feb-14 21:00N 34°20' E 134°26'5 9.0
2018-Feb-14 20:30N 34°18' E 134°31'5 9.2
2018-Feb-14 20:01N 34°16' E 134°36'5 9.7
2018-Feb-14 19:30N 34°13' E 134°40'5 9.2
2018-Feb-14 19:00N 34°09' E 134°44'4 8.6
2018-Feb-14 18:30N 34°06' E 134°47'4 8.5
2018-Feb-14 18:00N 34°02' E 134°50'4 8.5
2018-Feb-14 17:30N 33°59' E 134°54'4 8.3
2018-Feb-14 17:00N 33°56' E 134°57'4 8.5
2018-Feb-14 16:30N 33°53' E 135°00'5 8.2
2018-Feb-14 15:57N 33°50' E 135°04'163 6.4
2018-Feb-13 14:41N 34°33' E 138°14'1 6.4
2018-Feb-13 14:28N 34°34' E 138°15'4 6.8
2018-Feb-13 13:55N 34°34' E 138°20'4 6.8
2018-Feb-13 13:20N 34°34' E 138°24'2 6.6
2018-Feb-13 13:00N 34°34' E 138°27'4 6.0
2018-Feb-13 12:16N 34°35' E 138°33'2 5.8
2018-Feb-13 12:00N 34°34' E 138°34'3 5.5
2018-Feb-13 11:28N 34°34' E 138°38'3 5.0
2018-Feb-13 10:58N 34°34' E 138°41'2 4.8
2018-Feb-13 10:30N 34°34' E 138°44'3 4.5
2018-Feb-13 09:55N 34°35' E 138°47'2 4.3
2018-Feb-13 09:30N 34°35' E 138°49'2 4.0
2018-Feb-13 08:59N 34°35' E 138°52'2 4.0
2018-Feb-13 08:28N 34°35' E 138°54'2 4.8
2018-Feb-13 08:01N 34°36' E 138°57'3 5.5
2018-Feb-13 07:30N 34°37' E 138°60'3 6.1
2018-Feb-13 07:01N 34°40' E 139°02'4 7.3
2018-Feb-13 06:30N 34°43' E 139°04'4 7.1
2018-Feb-13 06:00N 34°46' E 139°07'3 6.8
2018-Feb-13 05:30N 34°48' E 139°09'4 7.1
2018-Feb-13 04:57N 34°51' E 139°12'5 7.8
2018-Feb-13 04:21N 34°55' E 139°16'3 7.4
2018-Feb-13 04:00N 34°57' E 139°18'4 7.0
2018-Feb-13 03:26N 34°59' E 139°22'4 6.9
2018-Feb-13 02:55N 35°01' E 139°26'3 7.0
2018-Feb-13 02:30N 35°02' E 139°29'4 7.2
2018-Feb-13 02:00N 35°04' E 139°33'4 7.4
2018-Feb-13 01:30N 35°06' E 139°37'4 7.6
2018-Feb-13 01:00N 35°08' E 139°41'4 7.7
2018-Feb-13 00:29N 35°10' E 139°44'4 8.0
2018-Feb-13 00:00N 35°14' E 139°46'4 8.8
2018-Feb-12 23:30N 35°18' E 139°44'4 9.0
2018-Feb-12 23:00N 35°22' E 139°42'4 7.8
2018-Feb-12 22:30N 35°25' E 139°45'4 7.6
2018-Feb-12 22:01N 35°23' E 139°50'1 1.1
2018-Feb-12 21:27N 35°23' E 139°50'0 0.0
2018-Feb-12 20:57N 35°23' E 139°50'0 0.0
2018-Feb-12 20:27N 35°23' E 139°50'0 0.0
2018-Feb-12 20:00N 35°23' E 139°50'0 0.0
2018-Feb-12 19:30N 35°23' E 139°50'0 0.0
2018-Feb-12 18:57N 35°23' E 139°50'0 0.0
2018-Feb-12 18:30N 35°23' E 139°50'0 0.0
2018-Feb-12 17:57N 35°23' E 139°50'0 0.0
2018-Feb-12 17:30N 35°23' E 139°50'0 0.0
2018-Feb-12 17:00N 35°23' E 139°50'0 0.0
2018-Feb-12 16:30N 35°23' E 139°50'0 0.0
2018-Feb-12 16:00N 35°23' E 139°50'0 0.0
2018-Feb-12 15:15N 35°23' E 139°50'0 0.0
2018-Feb-12 15:00N 35°23' E 139°50'0 0.0
2018-Feb-12 14:30N 35°23' E 139°50'0 0.0
2018-Feb-12 14:00N 35°23' E 139°50'0 0.0
2018-Feb-12 13:30N 35°23' E 139°50'0 0.0
2018-Feb-12 13:00N 35°23' E 139°50'0 0.0
2018-Feb-12 12:30N 35°23' E 139°50'0 0.0
2018-Feb-12 12:00N 35°23' E 139°50'0 0.0
2018-Feb-12 11:30N 35°23' E 139°50'0 0.0
2018-Feb-12 10:57N 35°23' E 139°50'0 0.0
2018-Feb-12 10:27N 35°23' E 139°50'0 0.0
2018-Feb-12 09:57N 35°23' E 139°50'0 0.0
2018-Feb-12 09:30N 35°23' E 139°50'0 0.0
2018-Feb-12 08:57N 35°23' E 139°50'0 0.0
2018-Feb-12 08:30N 35°23' E 139°50'0 0.0
2018-Feb-12 08:00N 35°23' E 139°50'0 0.0
2018-Feb-12 07:27N 35°23' E 139°50'0 0.0
2018-Feb-12 07:00N 35°23' E 139°50'0 0.0
2018-Feb-12 06:30N 35°23' E 139°50'0 0.0
2018-Feb-12 06:00N 35°23' E 139°50'0 0.0
2018-Feb-12 05:30N 35°23' E 139°50'0 0.0
2018-Feb-12 05:00N 35°23' E 139°50'0 0.0
2018-Feb-12 04:21N 35°23' E 139°50'0 0.0
2018-Feb-12 03:57N 35°23' E 139°50'0 0.0
2018-Feb-12 03:30N 35°23' E 139°50'0 0.0
2018-Feb-12 02:57N 35°23' E 139°50'0 0.0
2018-Feb-12 02:30N 35°23' E 139°50'0 0.0
2018-Feb-12 02:00N 35°23' E 139°50'0 0.0
2018-Feb-12 01:27N 35°23' E 139°50'0 0.0
2018-Feb-12 01:00N 35°23' E 139°50'0 0.0
2018-Feb-12 00:30N 35°23' E 139°50'0 0.0
2018-Feb-12 00:00N 35°23' E 139°50'0 0.0
2018-Feb-11 23:30N 35°23' E 139°50'0 0.0
2018-Feb-11 23:00N 35°23' E 139°50'0 0.1
2018-Feb-11 22:24N 35°23' E 139°50'0 0.3
2018-Feb-11 22:01N 35°23' E 139°50'2 2.9
2018-Feb-11 21:29N 35°22' E 139°51'0 0.0
2018-Feb-11 20:59N 35°22' E 139°51'0 0.0
2018-Feb-11 20:29N 35°22' E 139°51'0 0.0
2018-Feb-11 19:59N 35°22' E 139°51'0 0.0
2018-Feb-11 19:29N 35°22' E 139°51'0 0.0
2018-Feb-11 18:56N 35°22' E 139°51'0 0.0
2018-Feb-11 18:29N 35°22' E 139°51'0 0.0
2018-Feb-11 17:59N 35°22' E 139°51'0 0.0
2018-Feb-11 17:29N 35°22' E 139°51'0 0.0
2018-Feb-11 16:59N 35°22' E 139°51'0 0.0
2018-Feb-11 16:29N 35°22' E 139°51'0 0.0
2018-Feb-11 15:59N 35°22' E 139°51'0 0.0
2018-Feb-11 15:29N 35°22' E 139°51'0 0.0
2018-Feb-11 14:59N 35°22' E 139°51'0 0.0
2018-Feb-11 14:29N 35°22' E 139°51'0 0.0
2018-Feb-11 13:59N 35°22' E 139°51'0 0.0
2018-Feb-11 13:29N 35°22' E 139°51'0 0.0
2018-Feb-11 12:56N 35°22' E 139°51'0 0.0
2018-Feb-11 12:29N 35°22' E 139°51'0 0.0
2018-Feb-11 11:56N 35°22' E 139°51'0 0.0
2018-Feb-11 11:26N 35°22' E 139°51'0 0.0
2018-Feb-11 10:59N 35°22' E 139°51'0 0.0
2018-Feb-11 10:29N 35°22' E 139°51'0 0.0
2018-Feb-11 09:59N 35°22' E 139°51'0 0.0
2018-Feb-11 09:29N 35°22' E 139°51'0 0.0
2018-Feb-11 08:59N 35°22' E 139°51'0 0.0
2018-Feb-11 08:29N 35°22' E 139°51'0 0.0
2018-Feb-11 07:59N 35°22' E 139°51'0 0.0
2018-Feb-11 07:29N 35°22' E 139°51'0 0.0
2018-Feb-11 06:59N 35°22' E 139°51'0 0.0
2018-Feb-11 06:29N 35°22' E 139°51'0 0.0
2018-Feb-11 05:59N 35°22' E 139°51'0 0.0
2018-Feb-11 05:29N 35°22' E 139°51'0 0.0
2018-Feb-11 04:59N 35°22' E 139°51'0 0.0
2018-Feb-11 04:23N 35°22' E 139°51'0 0.0
2018-Feb-11 03:59N 35°22' E 139°51'0 0.0
2018-Feb-11 03:20N 35°22' E 139°51'0 0.0
2018-Feb-11 02:59N 35°22' E 139°51'0 0.0
2018-Feb-11 02:29N 35°22' E 139°51'0 0.0
2018-Feb-11 01:56N 35°22' E 139°51'0 0.0
2018-Feb-11 01:26N 35°22' E 139°51'0 0.0
2018-Feb-11 00:59N 35°22' E 139°51'0 0.0
2018-Feb-11 00:26N 35°22' E 139°51'0 0.0
2018-Feb-10 23:59N 35°22' E 139°51'0 0.0
2018-Feb-10 23:26N 35°22' E 139°51'0 0.0
2018-Feb-10 22:59N 35°22' E 139°51'0 0.0
2018-Feb-10 22:29N 35°22' E 139°51'0 0.0
2018-Feb-10 21:59N 35°22' E 139°51'0 0.0
2018-Feb-10 21:29N 35°22' E 139°51'0 0.0
2018-Feb-10 20:59N 35°22' E 139°51'0 0.0
2018-Feb-10 20:29N 35°22' E 139°51'0 0.0
2018-Feb-10 19:59N 35°22' E 139°51'0 0.0
2018-Feb-10 19:29N 35°22' E 139°51'0 0.0
2018-Feb-10 18:56N 35°22' E 139°51'0 0.0
2018-Feb-10 18:29N 35°22' E 139°51'0 0.0
2018-Feb-10 17:56N 35°22' E 139°51'0 0.0
2018-Feb-10 17:29N 35°22' E 139°51'0 0.0
2018-Feb-10 16:59N 35°22' E 139°51'0 0.0
2018-Feb-10 16:26N 35°22' E 139°51'0 0.0
2018-Feb-10 15:59N 35°22' E 139°51'0 0.0
2018-Feb-10 15:29N 35°22' E 139°51'0 0.0
2018-Feb-10 14:59N 35°22' E 139°51'0 0.0
2018-Feb-10 14:26N 35°22' E 139°51'0 0.0
2018-Feb-10 13:59N 35°22' E 139°51'0 0.0
2018-Feb-10 13:29N 35°22' E 139°51'0 0.0
2018-Feb-10 12:59N 35°22' E 139°51'0 0.0
2018-Feb-10 12:29N 35°22' E 139°51'0 0.0
2018-Feb-10 11:59N 35°22' E 139°51'0 0.0
2018-Feb-10 11:29N 35°22' E 139°51'0 0.0
2018-Feb-10 10:56N 35°22' E 139°51'1 2.3
2018-Feb-10 10:30N 35°23' E 139°51'3 4.4
2018-Feb-10 09:54N 35°21' E 139°54'0 0.0
2018-Feb-10 09:30N 35°21' E 139°54'0 0.0
2018-Feb-10 08:57N 35°21' E 139°54'0 0.0
2018-Feb-10 08:24N 35°21' E 139°54'0 0.0
2018-Feb-10 08:00N 35°21' E 139°54'0 0.0
2018-Feb-10 07:30N 35°21' E 139°54'0 0.0
2018-Feb-10 06:48N 35°21' E 139°54'0 0.0
2018-Feb-10 06:30N 35°21' E 139°54'0 0.0
2018-Feb-10 06:00N 35°21' E 139°54'0 0.0
2018-Feb-10 05:30N 35°21' E 139°54'0 0.0
2018-Feb-10 05:00N 35°21' E 139°54'0 0.0
2018-Feb-10 04:30N 35°21' E 139°54'0 0.0
2018-Feb-10 04:00N 35°21' E 139°54'0 0.0
2018-Feb-10 03:30N 35°21' E 139°54'0 0.0
2018-Feb-10 03:00N 35°21' E 139°54'0 0.0
2018-Feb-10 02:27N 35°21' E 139°54'0 0.0
2018-Feb-10 02:00N 35°21' E 139°54'0 0.0
2018-Feb-10 01:30N 35°21' E 139°54'0 0.0
2018-Feb-10 01:00N 35°21' E 139°54'0 0.0
2018-Feb-10 00:24N 35°21' E 139°54'0 0.0
2018-Feb-10 00:00N 35°21' E 139°54'0 0.0
2018-Feb-09 23:24N 35°21' E 139°54'0 0.0
2018-Feb-09 22:57N 35°21' E 139°54'0 0.0
2018-Feb-09 22:45N 35°21' E 139°54'5 0.2
2018-Feb-08 22:00N 35°23' E 139°48'12 7.8
2018-Feb-08 20:30N 35°11' E 139°47'5 9.0
2018-Feb-08 20:00N 35°07' E 139°45'4 8.9
2018-Feb-08 19:30N 35°03' E 139°42'251 7.4
2018-Feb-07 09:30N 34°27' E 134°39'4 8.5
2018-Feb-07 09:00N 34°32' E 134°40'4 8.8
2018-Feb-07 08:30N 34°36' E 134°40'4 8.7
2018-Feb-07 08:00N 34°41' E 134°40'4 8.5
2018-Feb-07 07:30N 34°45' E 134°39'1 0.6
2018-Feb-07 04:53N 34°46' E 134°40'0 0.0
2018-Feb-07 04:29N 34°46' E 134°40'0 0.0
2018-Feb-07 03:59N 34°46' E 134°40'0 0.0
2018-Feb-07 03:29N 34°46' E 134°40'0 0.0
2018-Feb-07 02:59N 34°46' E 134°40'0 0.0
2018-Feb-07 02:29N 34°46' E 134°40'0 0.0
2018-Feb-07 01:53N 34°46' E 134°40'0 0.0
2018-Feb-07 01:23N 34°46' E 134°40'0 0.0
2018-Feb-07 00:59N 34°46' E 134°40'0 0.0
2018-Feb-07 00:23N 34°46' E 134°40'0 0.0
2018-Feb-06 22:29N 34°46' E 134°40'1 2.7
2018-Feb-06 21:59N 34°45' E 134°40'0 0.0
2018-Feb-06 21:22N 34°45' E 134°40'1 1.9
2018-Feb-06 21:00N 34°44' E 134°40'4 8.7
2018-Feb-06 20:30N 34°40' E 134°40'4 9.0
2018-Feb-06 20:00N 34°36' E 134°37'5 9.2
2018-Feb-06 19:30N 34°33' E 134°33'5 9.1
2018-Feb-06 19:00N 34°30' E 134°29'5 9.4
2018-Feb-06 18:29N 34°27' E 134°24'85 7.7
2018-Feb-06 07:27N 34°01' E 132°46'4 8.9
2018-Feb-06 06:58N 33°57' E 132°43'  

Dump ship's entire track history